sensor_id;sensor_type;location;lat;lon;timestamp;P1;durP1;ratioP1;P2;durP2;ratioP2
22240;SDS011;11289;52.524;13.694;2023-05-21T00:01:18;15.13;;;13.23;;
22240;SDS011;11289;52.524;13.694;2023-05-21T00:03:44;16.50;;;13.45;;
22240;SDS011;11289;52.524;13.694;2023-05-21T00:06:11;17.60;;;12.50;;
22240;SDS011;11289;52.524;13.694;2023-05-21T00:08:38;16.55;;;12.63;;
22240;SDS011;11289;52.524;13.694;2023-05-21T00:11:04;15.75;;;13.75;;
22240;SDS011;11289;52.524;13.694;2023-05-21T00:13:31;14.50;;;12.85;;
22240;SDS011;11289;52.524;13.694;2023-05-21T00:15:57;14.75;;;12.95;;
22240;SDS011;11289;52.524;13.694;2023-05-21T00:18:23;17.88;;;14.30;;
22240;SDS011;11289;52.524;13.694;2023-05-21T00:20:50;15.27;;;13.68;;
22240;SDS011;11289;52.524;13.694;2023-05-21T00:23:16;14.00;;;12.65;;
22240;SDS011;11289;52.524;13.694;2023-05-21T00:25:43;13.95;;;12.43;;
22240;SDS011;11289;52.524;13.694;2023-05-21T00:28:11;17.75;;;13.50;;
22240;SDS011;11289;52.524;13.694;2023-05-21T00:30:37;14.57;;;13.02;;
22240;SDS011;11289;52.524;13.694;2023-05-21T00:33:04;15.50;;;13.57;;
22240;SDS011;11289;52.524;13.694;2023-05-21T00:35:30;14.68;;;12.38;;
22240;SDS011;11289;52.524;13.694;2023-05-21T00:37:56;17.25;;;13.48;;
22240;SDS011;11289;52.524;13.694;2023-05-21T00:40:23;16.73;;;12.57;;
22240;SDS011;11289;52.524;13.694;2023-05-21T00:42:49;16.00;;;14.35;;
22240;SDS011;11289;52.524;13.694;2023-05-21T00:45:15;16.38;;;13.45;;
22240;SDS011;11289;52.524;13.694;2023-05-21T00:47:41;17.00;;;14.52;;
22240;SDS011;11289;52.524;13.694;2023-05-21T00:50:09;17.77;;;13.38;;
22240;SDS011;11289;52.524;13.694;2023-05-21T00:52:36;15.30;;;13.38;;
22240;SDS011;11289;52.524;13.694;2023-05-21T00:55:06;16.45;;;13.90;;
22240;SDS011;11289;52.524;13.694;2023-05-21T00:57:34;17.58;;;14.55;;
22240;SDS011;11289;52.524;13.694;2023-05-21T01:00:02;14.70;;;13.13;;
22240;SDS011;11289;52.524;13.694;2023-05-21T01:02:31;17.67;;;14.00;;
22240;SDS011;11289;52.524;13.694;2023-05-21T01:04:59;18.95;;;14.85;;
22240;SDS011;11289;52.524;13.694;2023-05-21T01:07:25;16.70;;;14.32;;
22240;SDS011;11289;52.524;13.694;2023-05-21T01:09:51;15.75;;;14.13;;
22240;SDS011;11289;52.524;13.694;2023-05-21T01:12:18;16.25;;;13.68;;
22240;SDS011;11289;52.524;13.694;2023-05-21T01:14:45;15.88;;;14.27;;
22240;SDS011;11289;52.524;13.694;2023-05-21T01:17:12;18.40;;;15.30;;
22240;SDS011;11289;52.524;13.694;2023-05-21T01:19:39;19.02;;;15.60;;
22240;SDS011;11289;52.524;13.694;2023-05-21T01:22:07;19.15;;;15.52;;
22240;SDS011;11289;52.524;13.694;2023-05-21T01:24:33;18.13;;;16.23;;
22240;SDS011;11289;52.524;13.694;2023-05-21T01:27:00;16.65;;;14.93;;
22240;SDS011;11289;52.524;13.694;2023-05-21T01:29:27;18.05;;;16.15;;
22240;SDS011;11289;52.524;13.694;2023-05-21T01:37:30;21.10;;;16.27;;
22240;SDS011;11289;52.524;13.694;2023-05-21T01:40:23;21.17;;;17.10;;
22240;SDS011;11289;52.524;13.694;2023-05-21T01:42:54;20.58;;;17.58;;
22240;SDS011;11289;52.524;13.694;2023-05-21T01:45:21;18.58;;;16.52;;
22240;SDS011;11289;52.524;13.694;2023-05-21T01:47:50;21.45;;;17.73;;
22240;SDS011;11289;52.524;13.694;2023-05-21T01:50:18;19.10;;;16.92;;
22240;SDS011;11289;52.524;13.694;2023-05-21T01:52:53;22.05;;;19.55;;
22240;SDS011;11289;52.524;13.694;2023-05-21T01:55:25;20.98;;;17.17;;
22240;SDS011;11289;52.524;13.694;2023-05-21T01:57:53;20.52;;;17.80;;
22240;SDS011;11289;52.524;13.694;2023-05-21T02:00:20;20.73;;;17.92;;
22240;SDS011;11289;52.524;13.694;2023-05-21T02:02:47;22.42;;;17.77;;
22240;SDS011;11289;52.524;13.694;2023-05-21T02:05:14;19.70;;;17.23;;
22240;SDS011;11289;52.524;13.694;2023-05-21T02:07:41;21.95;;;18.58;;
22240;SDS011;11289;52.524;13.694;2023-05-21T02:10:10;21.30;;;19.00;;
22240;SDS011;11289;52.524;13.694;2023-05-21T02:12:36;21.40;;;19.13;;
22240;SDS011;11289;52.524;13.694;2023-05-21T02:15:04;20.77;;;17.23;;
22240;SDS011;11289;52.524;13.694;2023-05-21T02:17:30;23.38;;;19.08;;
22240;SDS011;11289;52.524;13.694;2023-05-21T02:19:58;23.85;;;19.55;;
22240;SDS011;11289;52.524;13.694;2023-05-21T02:22:37;24.00;;;21.08;;
22240;SDS011;11289;52.524;13.694;2023-05-21T02:25:05;23.70;;;19.63;;
22240;SDS011;11289;52.524;13.694;2023-05-21T02:27:33;21.88;;;19.60;;
22240;SDS011;11289;52.524;13.694;2023-05-21T02:30:01;23.15;;;20.30;;
22240;SDS011;11289;52.524;13.694;2023-05-21T02:32:29;28.98;;;21.17;;
22240;SDS011;11289;52.524;13.694;2023-05-21T02:34:57;22.30;;;19.98;;
22240;SDS011;11289;52.524;13.694;2023-05-21T02:37:26;23.27;;;20.70;;
22240;SDS011;11289;52.524;13.694;2023-05-21T02:39:53;24.38;;;20.27;;
22240;SDS011;11289;52.524;13.694;2023-05-21T02:42:20;26.40;;;21.05;;
22240;SDS011;11289;52.524;13.694;2023-05-21T02:44:48;23.23;;;20.17;;
22240;SDS011;11289;52.524;13.694;2023-05-21T02:47:15;23.33;;;20.83;;
22240;SDS011;11289;52.524;13.694;2023-05-21T02:49:42;24.75;;;20.20;;
22240;SDS011;11289;52.524;13.694;2023-05-21T02:52:08;21.75;;;19.23;;
22240;SDS011;11289;52.524;13.694;2023-05-21T02:54:34;22.80;;;19.40;;
22240;SDS011;11289;52.524;13.694;2023-05-21T02:57:01;24.73;;;20.42;;
22240;SDS011;11289;52.524;13.694;2023-05-21T02:59:27;23.58;;;21.08;;
22240;SDS011;11289;52.524;13.694;2023-05-21T03:01:53;24.83;;;21.30;;
22240;SDS011;11289;52.524;13.694;2023-05-21T03:04:19;23.80;;;21.30;;
22240;SDS011;11289;52.524;13.694;2023-05-21T03:06:46;24.45;;;20.88;;
22240;SDS011;11289;52.524;13.694;2023-05-21T03:09:14;23.90;;;21.10;;
22240;SDS011;11289;52.524;13.694;2023-05-21T03:11:41;25.45;;;21.65;;
22240;SDS011;11289;52.524;13.694;2023-05-21T03:14:07;26.60;;;20.98;;
22240;SDS011;11289;52.524;13.694;2023-05-21T03:16:34;26.58;;;21.55;;
22240;SDS011;11289;52.524;13.694;2023-05-21T03:19:00;25.60;;;21.83;;
22240;SDS011;11289;52.524;13.694;2023-05-21T03:21:26;24.95;;;22.25;;
22240;SDS011;11289;52.524;13.694;2023-05-21T03:23:54;25.45;;;21.67;;
22240;SDS011;11289;52.524;13.694;2023-05-21T03:26:24;25.15;;;22.55;;
22240;SDS011;11289;52.524;13.694;2023-05-21T03:28:52;24.23;;;21.63;;
22240;SDS011;11289;52.524;13.694;2023-05-21T03:31:18;25.52;;;22.77;;
22240;SDS011;11289;52.524;13.694;2023-05-21T03:33:44;24.05;;;21.63;;
22240;SDS011;11289;52.524;13.694;2023-05-21T03:36:10;26.65;;;23.80;;
22240;SDS011;11289;52.524;13.694;2023-05-21T03:38:36;24.73;;;21.67;;
22240;SDS011;11289;52.524;13.694;2023-05-21T03:41:02;25.08;;;22.33;;
22240;SDS011;11289;52.524;13.694;2023-05-21T03:43:28;27.55;;;21.75;;
22240;SDS011;11289;52.524;13.694;2023-05-21T03:45:54;25.85;;;22.45;;
22240;SDS011;11289;52.524;13.694;2023-05-21T03:48:20;30.02;;;23.02;;
22240;SDS011;11289;52.524;13.694;2023-05-21T03:50:46;27.23;;;22.75;;
22240;SDS011;11289;52.524;13.694;2023-05-21T03:53:12;23.73;;;20.83;;
22240;SDS011;11289;52.524;13.694;2023-05-21T03:55:39;27.15;;;23.38;;
22240;SDS011;11289;52.524;13.694;2023-05-21T03:58:05;25.65;;;22.17;;
22240;SDS011;11289;52.524;13.694;2023-05-21T04:00:32;26.38;;;22.50;;
22240;SDS011;11289;52.524;13.694;2023-05-21T04:02:59;26.42;;;23.00;;
22240;SDS011;11289;52.524;13.694;2023-05-21T04:05:25;26.05;;;23.17;;
22240;SDS011;11289;52.524;13.694;2023-05-21T04:07:51;25.88;;;23.17;;
22240;SDS011;11289;52.524;13.694;2023-05-21T04:10:17;24.77;;;22.35;;
22240;SDS011;11289;52.524;13.694;2023-05-21T04:12:43;25.38;;;21.90;;
22240;SDS011;11289;52.524;13.694;2023-05-21T04:15:09;26.25;;;23.58;;
22240;SDS011;11289;52.524;13.694;2023-05-21T04:17:35;24.60;;;21.80;;
22240;SDS011;11289;52.524;13.694;2023-05-21T04:20:01;24.20;;;20.98;;
22240;SDS011;11289;52.524;13.694;2023-05-21T04:22:27;25.77;;;22.58;;
22240;SDS011;11289;52.524;13.694;2023-05-21T04:24:53;26.83;;;22.65;;
22240;SDS011;11289;52.524;13.694;2023-05-21T04:27:22;27.67;;;23.88;;
22240;SDS011;11289;52.524;13.694;2023-05-21T04:29:49;30.75;;;23.45;;
22240;SDS011;11289;52.524;13.694;2023-05-21T04:32:15;26.70;;;23.65;;
22240;SDS011;11289;52.524;13.694;2023-05-21T04:34:42;23.38;;;20.95;;
22240;SDS011;11289;52.524;13.694;2023-05-21T04:37:09;26.30;;;22.90;;
22240;SDS011;11289;52.524;13.694;2023-05-21T04:39:35;27.55;;;22.63;;
22240;SDS011;11289;52.524;13.694;2023-05-21T04:42:01;25.15;;;22.50;;
22240;SDS011;11289;52.524;13.694;2023-05-21T04:44:30;30.42;;;24.40;;
22240;SDS011;11289;52.524;13.694;2023-05-21T04:46:56;27.08;;;24.17;;
22240;SDS011;11289;52.524;13.694;2023-05-21T04:49:23;28.17;;;25.13;;
22240;SDS011;11289;52.524;13.694;2023-05-21T04:51:49;26.95;;;22.98;;
22240;SDS011;11289;52.524;13.694;2023-05-21T04:54:15;25.52;;;22.45;;
22240;SDS011;11289;52.524;13.694;2023-05-21T04:56:41;27.75;;;24.80;;
22240;SDS011;11289;52.524;13.694;2023-05-21T04:59:07;25.25;;;22.58;;
22240;SDS011;11289;52.524;13.694;2023-05-21T05:01:33;26.35;;;23.63;;
22240;SDS011;11289;52.524;13.694;2023-05-21T05:03:59;25.52;;;22.92;;
22240;SDS011;11289;52.524;13.694;2023-05-21T05:06:25;26.67;;;22.58;;
22240;SDS011;11289;52.524;13.694;2023-05-21T05:08:51;25.23;;;22.70;;
22240;SDS011;11289;52.524;13.694;2023-05-21T05:11:17;26.50;;;23.63;;
22240;SDS011;11289;52.524;13.694;2023-05-21T05:13:44;27.35;;;24.45;;
22240;SDS011;11289;52.524;13.694;2023-05-21T05:16:10;26.23;;;23.35;;
22240;SDS011;11289;52.524;13.694;2023-05-21T05:18:37;27.98;;;23.98;;
22240;SDS011;11289;52.524;13.694;2023-05-21T05:21:03;24.35;;;21.85;;
22240;SDS011;11289;52.524;13.694;2023-05-21T05:23:29;25.70;;;22.90;;
22240;SDS011;11289;52.524;13.694;2023-05-21T05:25:55;24.08;;;21.55;;
22240;SDS011;11289;52.524;13.694;2023-05-21T05:28:21;25.83;;;22.60;;
22240;SDS011;11289;52.524;13.694;2023-05-21T05:30:47;24.83;;;22.15;;
22240;SDS011;11289;52.524;13.694;2023-05-21T05:33:13;24.67;;;22.08;;
22240;SDS011;11289;52.524;13.694;2023-05-21T05:35:39;26.10;;;23.48;;
22240;SDS011;11289;52.524;13.694;2023-05-21T05:38:05;25.13;;;22.38;;
22240;SDS011;11289;52.524;13.694;2023-05-21T05:40:33;26.75;;;23.85;;
22240;SDS011;11289;52.524;13.694;2023-05-21T05:43:00;24.00;;;21.52;;
22240;SDS011;11289;52.524;13.694;2023-05-21T05:45:26;24.90;;;22.30;;
22240;SDS011;11289;52.524;13.694;2023-05-21T05:47:52;23.63;;;21.17;;
22240;SDS011;11289;52.524;13.694;2023-05-21T05:50:18;24.67;;;21.50;;
22240;SDS011;11289;52.524;13.694;2023-05-21T05:52:45;23.92;;;21.35;;
22240;SDS011;11289;52.524;13.694;2023-05-21T05:55:11;22.70;;;20.33;;
22240;SDS011;11289;52.524;13.694;2023-05-21T05:57:37;24.52;;;21.98;;
22240;SDS011;11289;52.524;13.694;2023-05-21T06:00:03;25.38;;;22.27;;
22240;SDS011;11289;52.524;13.694;2023-05-21T06:02:30;23.52;;;20.42;;
22240;SDS011;11289;52.524;13.694;2023-05-21T06:04:56;24.70;;;22.08;;
22240;SDS011;11289;52.524;13.694;2023-05-21T06:07:22;23.88;;;21.35;;
22240;SDS011;11289;52.524;13.694;2023-05-21T06:09:48;24.20;;;21.52;;
22240;SDS011;11289;52.524;13.694;2023-05-21T06:12:14;21.85;;;19.58;;
22240;SDS011;11289;52.524;13.694;2023-05-21T06:14:41;22.55;;;20.15;;
22240;SDS011;11289;52.524;13.694;2023-05-21T06:17:07;26.08;;;20.33;;
22240;SDS011;11289;52.524;13.694;2023-05-21T06:19:33;23.65;;;21.17;;
22240;SDS011;11289;52.524;13.694;2023-05-21T06:21:59;21.90;;;19.73;;
22240;SDS011;11289;52.524;13.694;2023-05-21T06:24:25;20.42;;;18.38;;
22240;SDS011;11289;52.524;13.694;2023-05-21T06:26:51;22.67;;;19.02;;
22240;SDS011;11289;52.524;13.694;2023-05-21T06:29:17;22.23;;;19.58;;
22240;SDS011;11289;52.524;13.694;2023-05-21T06:31:43;20.95;;;18.75;;
22240;SDS011;11289;52.524;13.694;2023-05-21T06:34:09;20.92;;;18.85;;
22240;SDS011;11289;52.524;13.694;2023-05-21T06:36:36;21.20;;;18.75;;
22240;SDS011;11289;52.524;13.694;2023-05-21T06:39:03;21.40;;;19.15;;
22240;SDS011;11289;52.524;13.694;2023-05-21T06:41:29;20.38;;;18.27;;
22240;SDS011;11289;52.524;13.694;2023-05-21T06:43:55;19.85;;;17.65;;
22240;SDS011;11289;52.524;13.694;2023-05-21T06:46:22;21.25;;;18.60;;
22240;SDS011;11289;52.524;13.694;2023-05-21T06:48:55;19.63;;;17.52;;
22240;SDS011;11289;52.524;13.694;2023-05-21T06:51:21;22.23;;;18.98;;
22240;SDS011;11289;52.524;13.694;2023-05-21T06:53:47;19.55;;;17.48;;
22240;SDS011;11289;52.524;13.694;2023-05-21T06:56:14;21.85;;;18.42;;
22240;SDS011;11289;52.524;13.694;2023-05-21T06:58:40;20.40;;;18.23;;
22240;SDS011;11289;52.524;13.694;2023-05-21T07:01:06;20.20;;;18.20;;
22240;SDS011;11289;52.524;13.694;2023-05-21T07:03:32;20.67;;;18.10;;
22240;SDS011;11289;52.524;13.694;2023-05-21T07:06:00;20.63;;;18.42;;
22240;SDS011;11289;52.524;13.694;2023-05-21T07:08:26;19.35;;;17.50;;
22240;SDS011;11289;52.524;13.694;2023-05-21T07:10:52;21.17;;;18.55;;
22240;SDS011;11289;52.524;13.694;2023-05-21T07:13:18;19.70;;;17.58;;
22240;SDS011;11289;52.524;13.694;2023-05-21T07:15:44;18.55;;;16.75;;
22240;SDS011;11289;52.524;13.694;2023-05-21T07:18:10;22.20;;;17.88;;
22240;SDS011;11289;52.524;13.694;2023-05-21T07:20:36;21.80;;;17.40;;
22240;SDS011;11289;52.524;13.694;2023-05-21T07:23:02;19.23;;;17.02;;
22240;SDS011;11289;52.524;13.694;2023-05-21T07:25:28;20.98;;;17.95;;
22240;SDS011;11289;52.524;13.694;2023-05-21T07:27:55;18.13;;;16.30;;
22240;SDS011;11289;52.524;13.694;2023-05-21T07:30:21;18.45;;;16.52;;
22240;SDS011;11289;52.524;13.694;2023-05-21T07:32:47;19.80;;;17.70;;
22240;SDS011;11289;52.524;13.694;2023-05-21T07:35:13;19.38;;;17.23;;
22240;SDS011;11289;52.524;13.694;2023-05-21T07:37:39;20.48;;;18.30;;
22240;SDS011;11289;52.524;13.694;2023-05-21T07:40:05;20.00;;;17.90;;
22240;SDS011;11289;52.524;13.694;2023-05-21T07:42:32;17.52;;;15.73;;
22240;SDS011;11289;52.524;13.694;2023-05-21T07:44:59;19.90;;;16.38;;
22240;SDS011;11289;52.524;13.694;2023-05-21T07:47:26;17.83;;;15.77;;
22240;SDS011;11289;52.524;13.694;2023-05-21T07:49:52;16.75;;;14.45;;
22240;SDS011;11289;52.524;13.694;2023-05-21T07:52:18;17.40;;;15.40;;
22240;SDS011;11289;52.524;13.694;2023-05-21T07:54:44;17.63;;;15.77;;
22240;SDS011;11289;52.524;13.694;2023-05-21T07:57:14;18.42;;;15.73;;
22240;SDS011;11289;52.524;13.694;2023-05-21T07:59:40;16.80;;;14.88;;
22240;SDS011;11289;52.524;13.694;2023-05-21T08:02:06;17.92;;;15.95;;
22240;SDS011;11289;52.524;13.694;2023-05-21T08:04:32;16.15;;;14.50;;
22240;SDS011;11289;52.524;13.694;2023-05-21T08:07:00;15.85;;;14.15;;
22240;SDS011;11289;52.524;13.694;2023-05-21T08:09:26;14.73;;;13.32;;
22240;SDS011;11289;52.524;13.694;2023-05-21T08:11:55;15.38;;;13.77;;
22240;SDS011;11289;52.524;13.694;2023-05-21T08:14:22;15.73;;;13.57;;
22240;SDS011;11289;52.524;13.694;2023-05-21T08:16:50;16.33;;;13.73;;
22240;SDS011;11289;52.524;13.694;2023-05-21T08:19:18;15.40;;;12.48;;
22240;SDS011;11289;52.524;13.694;2023-05-21T08:21:45;14.75;;;13.35;;
22240;SDS011;11289;52.524;13.694;2023-05-21T08:24:14;13.70;;;12.20;;
22240;SDS011;11289;52.524;13.694;2023-05-21T08:26:40;12.70;;;11.40;;
22240;SDS011;11289;52.524;13.694;2023-05-21T08:29:11;13.95;;;12.45;;
22240;SDS011;11289;52.524;13.694;2023-05-21T08:31:38;13.90;;;12.50;;
22240;SDS011;11289;52.524;13.694;2023-05-21T08:34:05;12.85;;;11.50;;
22240;SDS011;11289;52.524;13.694;2023-05-21T08:36:31;13.70;;;11.73;;
22240;SDS011;11289;52.524;13.694;2023-05-21T08:38:59;14.23;;;11.13;;
22240;SDS011;11289;52.524;13.694;2023-05-21T08:41:25;11.88;;;10.65;;
22240;SDS011;11289;52.524;13.694;2023-05-21T08:43:56;11.90;;;10.68;;
22240;SDS011;11289;52.524;13.694;2023-05-21T08:49:14;12.68;;;11.35;;
22240;SDS011;11289;52.524;13.694;2023-05-21T08:51:43;14.48;;;11.43;;
22240;SDS011;11289;52.524;13.694;2023-05-21T08:54:18;12.15;;;10.95;;
22240;SDS011;11289;52.524;13.694;2023-05-21T08:56:48;12.25;;;10.98;;
22240;SDS011;11289;52.524;13.694;2023-05-21T08:59:17;12.40;;;10.88;;
22240;SDS011;11289;52.524;13.694;2023-05-21T09:01:45;13.35;;;10.75;;
22240;SDS011;11289;52.524;13.694;2023-05-21T09:04:14;14.43;;;10.45;;
22240;SDS011;11289;52.524;13.694;2023-05-21T09:06:42;12.18;;;10.18;;
22240;SDS011;11289;52.524;13.694;2023-05-21T09:09:13;13.65;;;10.38;;
22240;SDS011;11289;52.524;13.694;2023-05-21T09:11:45;11.20;;;9.88;;
22240;SDS011;11289;52.524;13.694;2023-05-21T09:14:12;14.10;;;10.50;;
22240;SDS011;11289;52.524;13.694;2023-05-21T09:16:39;12.43;;;10.80;;
22240;SDS011;11289;52.524;13.694;2023-05-21T09:19:05;12.07;;;10.32;;
22240;SDS011;11289;52.524;13.694;2023-05-21T09:21:31;11.73;;;10.00;;
22240;SDS011;11289;52.524;13.694;2023-05-21T09:23:58;10.65;;;9.57;;
22240;SDS011;11289;52.524;13.694;2023-05-21T09:26:25;11.02;;;9.93;;
22240;SDS011;11289;52.524;13.694;2023-05-21T09:28:51;10.02;;;9.02;;
22240;SDS011;11289;52.524;13.694;2023-05-21T09:31:22;10.80;;;9.65;;
22240;SDS011;11289;52.524;13.694;2023-05-21T09:33:52;11.35;;;10.07;;
22240;SDS011;11289;52.524;13.694;2023-05-21T09:36:27;10.73;;;9.65;;
22240;SDS011;11289;52.524;13.694;2023-05-21T09:39:00;10.90;;;8.77;;
22240;SDS011;11289;52.524;13.694;2023-05-21T09:41:56;10.30;;;9.27;;
22240;SDS011;11289;52.524;13.694;2023-05-21T09:44:22;11.52;;;9.63;;
22240;SDS011;11289;52.524;13.694;2023-05-21T09:46:48;10.43;;;8.90;;
22240;SDS011;11289;52.524;13.694;2023-05-21T09:49:21;13.65;;;9.90;;
22240;SDS011;11289;52.524;13.694;2023-05-21T09:51:49;12.13;;;10.25;;
22240;SDS011;11289;52.524;13.694;2023-05-21T09:54:15;12.43;;;10.70;;
22240;SDS011;11289;52.524;13.694;2023-05-21T09:56:41;15.98;;;8.85;;
22240;SDS011;11289;52.524;13.694;2023-05-21T09:59:07;10.73;;;9.63;;
22240;SDS011;11289;52.524;13.694;2023-05-21T10:01:33;9.75;;;8.80;;
22240;SDS011;11289;52.524;13.694;2023-05-21T10:04:01;11.68;;;9.02;;
22240;SDS011;11289;52.524;13.694;2023-05-21T10:06:31;11.30;;;9.15;;
22240;SDS011;11289;52.524;13.694;2023-05-21T10:09:04;13.95;;;9.18;;
22240;SDS011;11289;52.524;13.694;2023-05-21T10:11:33;11.65;;;9.18;;
22240;SDS011;11289;52.524;13.694;2023-05-21T10:14:05;11.15;;;8.68;;
22240;SDS011;11289;52.524;13.694;2023-05-21T10:16:32;10.25;;;8.57;;
22240;SDS011;11289;52.524;13.694;2023-05-21T10:19:00;10.85;;;8.65;;
22240;SDS011;11289;52.524;13.694;2023-05-21T10:21:27;10.52;;;8.15;;
22240;SDS011;11289;52.524;13.694;2023-05-21T10:23:56;9.38;;;8.00;;
22240;SDS011;11289;52.524;13.694;2023-05-21T10:26:22;7.53;;;6.82;;
22240;SDS011;11289;52.524;13.694;2023-05-21T10:28:52;11.30;;;7.68;;
22240;SDS011;11289;52.524;13.694;2023-05-21T10:31:20;9.60;;;8.10;;
22240;SDS011;11289;52.524;13.694;2023-05-21T10:33:47;8.82;;;7.93;;
22240;SDS011;11289;52.524;13.694;2023-05-21T10:36:15;9.20;;;7.15;;
22240;SDS011;11289;52.524;13.694;2023-05-21T10:38:47;10.53;;;7.03;;
22240;SDS011;11289;52.524;13.694;2023-05-21T10:41:16;8.40;;;7.30;;
22240;SDS011;11289;52.524;13.694;2023-05-21T10:49:30;7.80;;;7.03;;
22240;SDS011;11289;52.524;13.694;2023-05-21T10:55:22;7.32;;;6.50;;
22240;SDS011;11289;52.524;13.694;2023-05-21T11:01:15;7.75;;;6.28;;
22240;SDS011;11289;52.524;13.694;2023-05-21T11:03:59;6.97;;;5.80;;
22240;SDS011;11289;52.524;13.694;2023-05-21T11:06:25;8.77;;;6.75;;
22240;SDS011;11289;52.524;13.694;2023-05-21T11:09:19;6.55;;;5.85;;
22240;SDS011;11289;52.524;13.694;2023-05-21T11:11:55;8.55;;;7.03;;
22240;SDS011;11289;52.524;13.694;2023-05-21T11:14:41;7.45;;;6.40;;
22240;SDS011;11289;52.524;13.694;2023-05-21T11:17:49;7.65;;;5.82;;
22240;SDS011;11289;52.524;13.694;2023-05-21T11:20:32;7.47;;;6.05;;
22240;SDS011;11289;52.524;13.694;2023-05-21T11:22:59;6.53;;;5.82;;
22240;SDS011;11289;52.524;13.694;2023-05-21T11:25:25;9.60;;;5.85;;
22240;SDS011;11289;52.524;13.694;2023-05-21T11:27:55;8.23;;;6.60;;
22240;SDS011;11289;52.524;13.694;2023-05-21T11:30:30;8.07;;;5.80;;
22240;SDS011;11289;52.524;13.694;2023-05-21T11:36:15;12.77;;;6.57;;
22240;SDS011;11289;52.524;13.694;2023-05-21T11:38:26;5.65;;;5.05;;
22240;SDS011;11289;52.524;13.694;2023-05-21T11:40:54;11.32;;;7.10;;
22240;SDS011;11289;52.524;13.694;2023-05-21T11:43:20;9.48;;;6.50;;
22240;SDS011;11289;52.524;13.694;2023-05-21T11:45:46;7.18;;;5.30;;
22240;SDS011;11289;52.524;13.694;2023-05-21T11:48:12;7.65;;;5.63;;
22240;SDS011;11289;52.524;13.694;2023-05-21T11:50:38;8.77;;;6.25;;
22240;SDS011;11289;52.524;13.694;2023-05-21T11:53:07;6.53;;;5.90;;
22240;SDS011;11289;52.524;13.694;2023-05-21T11:55:36;8.18;;;5.50;;
22240;SDS011;11289;52.524;13.694;2023-05-21T11:58:05;6.95;;;6.20;;
22240;SDS011;11289;52.524;13.694;2023-05-21T12:00:37;6.97;;;6.18;;
22240;SDS011;11289;52.524;13.694;2023-05-21T12:03:04;6.05;;;5.50;;
22240;SDS011;11289;52.524;13.694;2023-05-21T12:05:47;8.63;;;6.35;;
22240;SDS011;11289;52.524;13.694;2023-05-21T12:08:20;7.60;;;5.25;;
22240;SDS011;11289;52.524;13.694;2023-05-21T12:10:58;7.65;;;5.68;;
22240;SDS011;11289;52.524;13.694;2023-05-21T12:13:27;7.00;;;5.18;;
22240;SDS011;11289;52.524;13.694;2023-05-21T12:16:24;8.02;;;5.70;;
22240;SDS011;11289;52.524;13.694;2023-05-21T12:19:15;7.57;;;5.53;;
22240;SDS011;11289;52.524;13.694;2023-05-21T12:21:51;8.07;;;5.85;;
22240;SDS011;11289;52.524;13.694;2023-05-21T12:24:21;10.25;;;6.15;;
22240;SDS011;11289;52.524;13.694;2023-05-21T12:27:07;8.10;;;5.60;;
22240;SDS011;11289;52.524;13.694;2023-05-21T12:29:38;8.32;;;5.82;;
22240;SDS011;11289;52.524;13.694;2023-05-21T12:32:11;7.53;;;5.63;;
22240;SDS011;11289;52.524;13.694;2023-05-21T12:37:26;8.20;;;6.18;;
22240;SDS011;11289;52.524;13.694;2023-05-21T12:39:57;11.32;;;6.63;;
22240;SDS011;11289;52.524;13.694;2023-05-21T12:42:29;7.32;;;6.47;;
22240;SDS011;11289;52.524;13.694;2023-05-21T12:44:56;5.38;;;4.85;;
22240;SDS011;11289;52.524;13.694;2023-05-21T12:47:23;10.32;;;6.05;;
22240;SDS011;11289;52.524;13.694;2023-05-21T12:49:57;6.47;;;5.20;;
22240;SDS011;11289;52.524;13.694;2023-05-21T12:52:24;6.97;;;5.78;;
22240;SDS011;11289;52.524;13.694;2023-05-21T12:54:52;9.50;;;7.57;;
22240;SDS011;11289;52.524;13.694;2023-05-21T12:57:20;7.70;;;6.00;;
22240;SDS011;11289;52.524;13.694;2023-05-21T12:59:52;6.95;;;6.13;;
22240;SDS011;11289;52.524;13.694;2023-05-21T13:02:28;8.45;;;6.47;;
22240;SDS011;11289;52.524;13.694;2023-05-21T13:04:58;8.63;;;6.82;;
22240;SDS011;11289;52.524;13.694;2023-05-21T13:10:03;8.75;;;6.57;;
22240;SDS011;11289;52.524;13.694;2023-05-21T13:12:31;6.50;;;5.47;;
22240;SDS011;11289;52.524;13.694;2023-05-21T13:14:58;7.95;;;5.68;;
22240;SDS011;11289;52.524;13.694;2023-05-21T13:17:26;11.20;;;6.60;;
22240;SDS011;11289;52.524;13.694;2023-05-21T13:20:14;8.35;;;5.70;;
22240;SDS011;11289;52.524;13.694;2023-05-21T13:22:46;7.10;;;5.70;;
22240;SDS011;11289;52.524;13.694;2023-05-21T13:25:15;8.23;;;5.90;;
22240;SDS011;11289;52.524;13.694;2023-05-21T13:27:49;13.07;;;6.18;;
22240;SDS011;11289;52.524;13.694;2023-05-21T13:30:16;6.28;;;5.05;;
22240;SDS011;11289;52.524;13.694;2023-05-21T13:32:43;11.88;;;5.47;;
22240;SDS011;11289;52.524;13.694;2023-05-21T13:35:09;8.00;;;5.38;;
22240;SDS011;11289;52.524;13.694;2023-05-21T13:37:37;7.32;;;5.60;;
22240;SDS011;11289;52.524;13.694;2023-05-21T13:40:05;7.90;;;6.05;;
22240;SDS011;11289;52.524;13.694;2023-05-21T13:42:39;7.10;;;6.40;;
22240;SDS011;11289;52.524;13.694;2023-05-21T13:45:06;9.73;;;6.18;;
22240;SDS011;11289;52.524;13.694;2023-05-21T13:47:32;5.70;;;5.20;;
22240;SDS011;11289;52.524;13.694;2023-05-21T13:49:58;7.80;;;5.63;;
22240;SDS011;11289;52.524;13.694;2023-05-21T13:52:25;7.72;;;5.13;;
22240;SDS011;11289;52.524;13.694;2023-05-21T13:54:51;6.90;;;5.20;;
22240;SDS011;11289;52.524;13.694;2023-05-21T13:57:17;5.13;;;4.63;;
22240;SDS011;11289;52.524;13.694;2023-05-21T13:59:44;5.95;;;5.18;;
22240;SDS011;11289;52.524;13.694;2023-05-21T14:02:10;5.43;;;4.93;;
22240;SDS011;11289;52.524;13.694;2023-05-21T14:04:36;8.02;;;5.40;;
22240;SDS011;11289;52.524;13.694;2023-05-21T14:07:04;8.38;;;5.28;;
22240;SDS011;11289;52.524;13.694;2023-05-21T14:09:31;11.55;;;5.28;;
22240;SDS011;11289;52.524;13.694;2023-05-21T14:11:57;5.85;;;4.68;;
22240;SDS011;11289;52.524;13.694;2023-05-21T14:14:23;7.75;;;5.13;;
22240;SDS011;11289;52.524;13.694;2023-05-21T14:16:49;7.47;;;5.32;;
22240;SDS011;11289;52.524;13.694;2023-05-21T14:19:21;7.80;;;4.47;;
22240;SDS011;11289;52.524;13.694;2023-05-21T14:21:47;10.60;;;5.65;;
22240;SDS011;11289;52.524;13.694;2023-05-21T14:24:17;7.72;;;5.15;;
22240;SDS011;11289;52.524;13.694;2023-05-21T14:26:43;7.10;;;4.93;;
22240;SDS011;11289;52.524;13.694;2023-05-21T14:29:09;9.65;;;4.93;;
22240;SDS011;11289;52.524;13.694;2023-05-21T14:31:35;6.18;;;5.55;;
22240;SDS011;11289;52.524;13.694;2023-05-21T14:34:01;10.93;;;5.63;;
22240;SDS011;11289;52.524;13.694;2023-05-21T14:36:27;8.88;;;5.55;;
22240;SDS011;11289;52.524;13.694;2023-05-21T14:38:54;7.30;;;4.93;;
22240;SDS011;11289;52.524;13.694;2023-05-21T14:41:25;8.38;;;4.60;;
22240;SDS011;11289;52.524;13.694;2023-05-21T14:43:53;5.95;;;4.30;;
22240;SDS011;11289;52.524;13.694;2023-05-21T14:46:19;8.32;;;4.85;;
22240;SDS011;11289;52.524;13.694;2023-05-21T14:48:45;5.72;;;4.93;;
22240;SDS011;11289;52.524;13.694;2023-05-21T14:51:12;5.53;;;5.00;;